Time,TemperatureF,DewpointF,PressureIn,WindDirection,WindDirectionDegrees,WindSpeedMPH,WindSpeedGustMPH,Humidity,HourlyPrecipIn,Conditions,Clouds,dailyrainin,SoftwareType,DateUTC
2013-04-15 00:05:00,42.4,32.2,29.63,North,1,0.0,0.0,67,0.00,,,0.00,Wunderground v.1.15,2013-04-15 07:05:00,
2013-04-15 00:41:00,39.9,32.6,29.67,NNE,25,0.0,0.0,75,0.00,,,0.00,Wunderground v.1.15,2013-04-15 07:41:00,
2013-04-15 00:43:00,39.9,32.6,29.67,NE,52,0.0,0.0,75,0.00,,,0.00,Wunderground v.1.15,2013-04-15 07:43:00,
2013-04-15 00:48:00,39.8,32.5,29.66,NNE,25,0.0,0.0,75,0.00,,,0.00,Wunderground v.1.15,2013-04-15 07:48:00,
2013-04-15 00:49:00,39.7,32.1,29.67,NNE,14,0.0,0.0,74,0.00,,,0.00,Wunderground v.1.15,2013-04-15 07:49:00,
2013-04-15 00:51:00,39.7,32.1,29.67,NE,37,0.0,0.0,74,0.00,,,0.00,Wunderground v.1.15,2013-04-15 07:51:00,
2013-04-15 00:54:00,39.7,32.1,29.67,NNE,19,0.0,0.0,74,0.00,,,0.00,Wunderground v.1.15,2013-04-15 07:54:00,
2013-04-15 01:00:00,39.5,32.2,29.67,NNE,27,0.0,0.0,75,0.00,,,0.00,Wunderground v.1.15,2013-04-15 08:00:00,
2013-04-15 01:06:00,39.5,32.6,29.67,North,8,0.0,0.0,76,0.00,,,0.00,Wunderground v.1.15,2013-04-15 08:06:00,
2013-04-15 01:12:00,39.3,32.4,29.68,NNE,23,0.0,0.0,76,0.00,,,0.00,Wunderground v.1.15,2013-04-15 08:12:00,
2013-04-15 01:18:00,39.1,32.5,29.67,NNE,19,0.0,0.0,77,0.00,,,0.00,Wunderground v.1.15,2013-04-15 08:18:00,
2013-04-15 01:23:00,38.7,32.4,29.67,NNE,25,0.0,0.0,78,0.00,,,0.00,Wunderground v.1.15,2013-04-15 08:23:00,
2013-04-15 01:29:00,38.2,32.9,29.68,NNE,24,0.0,0.0,81,0.00,,,0.00,Wunderground v.1.15,2013-04-15 08:29:00,
2013-04-15 01:34:00,37.5,32.5,29.68,NNE,14,0.0,0.0,82,0.00,,,0.00,Wunderground v.1.15,2013-04-15 08:34:00,
2013-04-15 01:40:00,36.7,32.6,29.69,NNE,15,0.0,0.0,85,0.00,,,0.00,Wunderground v.1.15,2013-04-15 08:40:00,
2013-04-15 01:41:00,36.5,32.4,29.69,North,357,0.0,0.0,85,0.00,,,0.00,Wunderground v.1.15,2013-04-15 08:41:00,
2013-04-15 01:43:00,36.3,32.5,29.69,North,10,0.0,0.0,86,0.00,,,0.00,Wunderground v.1.15,2013-04-15 08:43:00,
2013-04-15 01:45:00,36.2,32.4,29.69,NNE,21,0.0,0.0,86,0.00,,,0.00,Wunderground v.1.15,2013-04-15 08:45:00,
2013-04-15 01:50:00,35.8,32.6,29.69,NNW,340,0.0,0.0,88,0.00,,,0.00,Wunderground v.1.15,2013-04-15 08:50:00,
2013-04-15 01:56:00,35.6,32.7,29.69,North,3,0.0,0.0,89,0.00,,,0.00,Wunderground v.1.15,2013-04-15 08:56:00,
2013-04-15 02:01:00,35.0,32.1,29.68,North,356,0.0,0.0,89,0.00,,,0.00,Wunderground v.1.15,2013-04-15 09:01:00,
2013-04-15 02:07:00,34.8,32.2,29.68,NNE,14,0.0,0.0,90,0.00,,,0.00,Wunderground v.1.15,2013-04-15 09:07:00,
2013-04-15 02:12:00,34.9,32.5,29.69,NNE,22,0.0,0.0,91,0.00,,,0.00,Wunderground v.1.15,2013-04-15 09:12:00,
2013-04-15 02:18:00,35.1,33.0,29.69,North,1,0.0,0.0,92,0.00,,,0.00,Wunderground v.1.15,2013-04-15 09:18:00,
2013-04-15 02:24:00,35.3,33.2,29.69,NNE,13,0.0,0.0,92,0.00,,,0.00,Wunderground v.1.15,2013-04-15 09:24:00,
2013-04-15 02:29:00,35.3,33.2,29.69,North,350,0.0,0.0,92,0.00,,,0.00,Wunderground v.1.15,2013-04-15 09:29:00,
2013-04-15 02:35:00,35.3,33.2,29.69,NNE,13,0.0,0.0,92,0.00,,,0.00,Wunderground v.1.15,2013-04-15 09:35:00,
2013-04-15 02:40:00,35.3,33.2,29.69,NE,42,0.0,0.0,92,0.00,,,0.00,Wunderground v.1.15,2013-04-15 09:40:00,
2013-04-15 02:45:00,35.4,33.3,29.69,NNE,23,0.0,0.0,92,0.00,,,0.00,Wunderground v.1.15,2013-04-15 09:45:00,
2013-04-15 02:51:00,35.3,33.2,29.69,NE,35,0.0,0.0,92,0.00,,,0.01,Wunderground v.1.15,2013-04-15 09:51:00,
2013-04-15 02:56:00,35.1,33.0,29.69,North,9,0.0,0.0,92,0.00,,,0.01,Wunderground v.1.15,2013-04-15 09:56:00,
2013-04-15 03:02:00,34.9,32.8,29.68,NNE,27,0.0,0.0,92,0.00,,,0.01,Wunderground v.1.15,2013-04-15 10:02:00,
2013-04-15 03:08:00,34.8,32.7,29.69,NE,34,0.0,0.0,92,0.00,,,0.01,Wunderground v.1.15,2013-04-15 10:08:00,
2013-04-15 03:13:00,34.7,32.6,29.70,NNE,22,0.0,0.0,92,0.00,,,0.01,Wunderground v.1.15,2013-04-15 10:13:00,
2013-04-15 03:19:00,34.6,32.8,29.70,NNE,31,0.0,0.0,93,0.00,,,0.01,Wunderground v.1.15,2013-04-15 10:19:00,
2013-04-15 03:25:00,34.6,32.8,29.70,North,7,0.0,0.0,93,0.00,,,0.01,Wunderground v.1.15,2013-04-15 10:25:00,
2013-04-15 03:30:00,34.5,32.7,29.69,North,350,0.0,0.0,93,0.00,,,0.01,Wunderground v.1.15,2013-04-15 10:30:00,
2013-04-15 03:35:00,34.4,32.6,29.70,North,11,0.0,0.0,93,0.00,,,0.01,Wunderground v.1.15,2013-04-15 10:35:00,
2013-04-15 03:41:00,34.3,32.5,29.70,NNE,12,0.0,0.0,93,0.00,,,0.01,Wunderground v.1.15,2013-04-15 10:41:00,
2013-04-15 03:47:00,34.2,32.4,29.71,NNW,340,0.0,0.0,93,0.00,,,0.01,Wunderground v.1.15,2013-04-15 10:47:00,
2013-04-15 03:53:00,34.1,32.3,29.70,North,11,0.0,0.0,93,0.00,,,0.01,Wunderground v.1.15,2013-04-15 10:53:00,
2013-04-15 03:59:00,34.1,32.3,29.70,NNE,21,0.0,0.0,93,0.00,,,0.01,Wunderground v.1.15,2013-04-15 10:59:00,
2013-04-15 04:05:00,33.9,32.1,29.70,NNE,15,0.0,0.0,93,0.00,,,0.01,Wunderground v.1.15,2013-04-15 11:05:00,
2013-04-15 04:11:00,33.9,32.4,29.70,NNE,18,0.0,0.0,94,0.00,,,0.01,Wunderground v.1.15,2013-04-15 11:11:00,
2013-04-15 04:17:00,33.8,32.3,29.71,NNW,340,0.0,0.0,94,0.00,,,0.01,Wunderground v.1.15,2013-04-15 11:17:00,
2013-04-15 04:23:00,33.8,32.3,29.70,North,7,0.0,0.0,94,0.00,,,0.01,Wunderground v.1.15,2013-04-15 11:23:00,
2013-04-15 04:29:00,33.6,32.1,29.70,NNW,338,0.0,0.0,94,0.00,,,0.01,Wunderground v.1.15,2013-04-15 11:29:00,
2013-04-15 04:35:00,33.3,31.8,29.70,NNW,343,0.0,0.0,94,0.00,,,0.01,Wunderground v.1.15,2013-04-15 11:35:00,
2013-04-15 04:40:00,33.2,31.7,29.70,North,357,0.0,0.0,94,0.00,,,0.01,Wunderground v.1.15,2013-04-15 11:40:00,
2013-04-15 04:46:00,33.1,31.6,29.70,North,358,0.0,0.0,94,0.00,,,0.01,Wunderground v.1.15,2013-04-15 11:46:00,
2013-04-15 04:51:00,33.1,31.6,29.70,NNW,345,0.0,0.0,94,0.00,,,0.01,Wunderground v.1.15,2013-04-15 11:51:00,
2013-04-15 04:56:00,33.0,31.5,29.70,North,352,0.0,0.0,94,0.00,,,0.01,Wunderground v.1.15,2013-04-15 11:56:00,
2013-04-15 05:02:00,32.9,31.4,29.71,North,352,0.0,0.0,94,0.00,,,0.01,Wunderground v.1.15,2013-04-15 12:02:00,
2013-04-15 05:07:00,32.9,31.4,29.71,NNW,339,0.0,0.0,94,0.00,,,0.01,Wunderground v.1.15,2013-04-15 12:07:00,
2013-04-15 05:12:00,32.9,31.4,29.71,NW,322,0.0,0.0,94,0.00,,,0.01,Wunderground v.1.15,2013-04-15 12:12:00,
2013-04-15 05:19:00,33.1,31.8,29.71,NW,322,0.0,0.0,95,0.00,,,0.01,Wunderground v.1.15,2013-04-15 12:19:00,
2013-04-15 05:24:00,33.1,31.8,29.71,NW,322,0.0,0.0,95,0.00,,,0.01,Wunderground v.1.15,2013-04-15 12:24:00,
2013-04-15 05:30:00,33.1,31.8,29.71,NW,321,0.0,0.0,95,0.00,,,0.01,Wunderground v.1.15,2013-04-15 12:30:00,
2013-04-15 05:37:00,32.9,31.6,29.71,NNW,333,0.0,0.0,95,0.00,,,0.01,Wunderground v.1.15,2013-04-15 12:37:00,
2013-04-15 05:43:00,32.8,31.5,29.71,NW,316,0.0,0.0,95,0.00,,,0.01,Wunderground v.1.15,2013-04-15 12:43:00,
2013-04-15 05:49:00,32.7,31.4,29.72,WNW,294,0.0,0.0,95,0.00,,,0.01,Wunderground v.1.15,2013-04-15 12:49:00,
2013-04-15 05:54:00,32.7,31.4,29.72,WNW,293,0.0,0.0,95,0.00,,,0.01,Wunderground v.1.15,2013-04-15 12:54:00,
2013-04-15 06:00:00,32.6,31.3,29.72,WNW,293,0.0,0.0,95,0.00,,,0.01,Wunderground v.1.15,2013-04-15 13:00:00,
2013-04-15 06:07:00,32.6,31.3,29.72,WNW,293,0.0,0.0,95,0.00,,,0.01,Wunderground v.1.15,2013-04-15 13:07:00,
2013-04-15 06:12:00,32.6,31.3,29.72,NW,309,0.0,0.0,95,0.00,,,0.01,Wunderground v.1.15,2013-04-15 13:12:00,
2013-04-15 06:18:00,32.6,31.3,29.72,WNW,293,0.0,0.0,95,0.00,,,0.01,Wunderground v.1.15,2013-04-15 13:18:00,
2013-04-15 06:23:00,32.0,30.7,29.72,NW,311,0.0,0.0,95,0.00,,,0.02,Wunderground v.1.15,2013-04-15 13:23:00,
2013-04-15 06:29:00,32.0,30.7,29.72,NW,311,0.0,0.0,95,0.00,,,0.02,Wunderground v.1.15,2013-04-15 13:29:00,
2013-04-15 06:34:00,-999.9,-99.9,29.73,North,32767,-999.0,0.0,255,-99.99,,,0.02,Wunderground v.1.15,2013-04-15 13:34:00,
2013-04-15 06:40:00,-999.9,-99.9,29.72,North,32767,-999.0,0.0,255,-99.99,,,0.02,Wunderground v.1.15,2013-04-15 13:40:00,
2013-04-15 06:45:00,-999.9,-99.9,29.72,North,32767,-999.0,0.0,255,-99.99,,,0.02,Wunderground v.1.15,2013-04-15 13:45:00,
2013-04-15 06:53:00,-999.9,-99.9,29.72,North,32767,-999.0,0.0,255,-99.99,,,0.02,Wunderground v.1.15,2013-04-15 13:53:00,
2013-04-15 06:58:00,-999.9,-99.9,29.72,North,32767,-999.0,0.0,255,-99.99,,,0.02,Wunderground v.1.15,2013-04-15 13:58:00,
2013-04-15 07:04:00,-999.9,-99.9,29.72,North,32767,-999.0,0.0,255,-99.99,,,0.02,Wunderground v.1.15,2013-04-15 14:04:00,
2013-04-15 07:10:00,-999.9,-99.9,29.73,North,32767,-999.0,0.0,255,-99.99,,,0.02,Wunderground v.1.15,2013-04-15 14:10:00,
2013-04-15 07:18:00,-999.9,-99.9,29.72,North,32767,-999.0,0.0,255,-99.99,,,0.02,Wunderground v.1.15,2013-04-15 14:18:00,
2013-04-15 07:24:00,-999.9,-99.9,29.72,North,32767,-999.0,0.0,255,-99.99,,,0.02,Wunderground v.1.15,2013-04-15 14:24:00,
2013-04-15 07:30:00,-999.9,-99.9,29.72,North,32767,-999.0,0.0,255,-99.99,,,0.02,Wunderground v.1.15,2013-04-15 14:30:00,
2013-04-15 07:35:00,-999.9,-99.9,29.73,North,32767,-999.0,0.0,255,-99.99,,,0.02,Wunderground v.1.15,2013-04-15 14:35:00,
2013-04-15 07:40:00,32.6,31.3,29.73,NW,307,0.0,0.0,95,0.00,,,0.02,Wunderground v.1.15,2013-04-15 14:40:00,
2013-04-15 07:45:00,32.7,31.4,29.73,WNW,282,0.0,0.0,95,0.00,,,0.02,Wunderground v.1.15,2013-04-15 14:45:00,
2013-04-15 07:51:00,32.8,31.5,29.74,WNW,287,0.0,0.0,95,0.00,,,0.02,Wunderground v.1.15,2013-04-15 14:51:00,
2013-04-15 07:56:00,32.8,31.5,29.74,West,276,0.0,0.0,95,0.00,,,0.02,Wunderground v.1.15,2013-04-15 14:56:00,
2013-04-15 08:03:00,32.8,31.5,29.73,NW,319,0.0,0.0,95,0.00,,,0.03,Wunderground v.1.15,2013-04-15 15:03:00,
2013-04-15 08:08:00,33.1,31.8,29.73,NNW,336,0.0,0.0,95,0.00,,,0.03,Wunderground v.1.15,2013-04-15 15:08:00,
2013-04-15 08:13:00,33.2,31.7,29.73,NW,315,0.0,0.0,94,0.00,,,0.03,Wunderground v.1.15,2013-04-15 15:13:00,
2013-04-15 08:18:00,33.7,32.2,29.73,WNW,298,0.0,0.0,94,0.00,,,0.03,Wunderground v.1.15,2013-04-15 15:18:00,
2013-04-15 08:24:00,33.7,32.2,29.73,WNW,301,0.0,0.0,94,0.00,,,0.03,Wunderground v.1.15,2013-04-15 15:24:00,
2013-04-15 08:30:00,34.0,32.5,29.73,NW,315,0.0,0.0,94,0.00,,,0.03,Wunderground v.1.15,2013-04-15 15:30:00,
2013-04-15 08:35:00,34.1,32.6,29.73,NW,318,0.0,0.0,94,0.00,,,0.03,Wunderground v.1.15,2013-04-15 15:35:00,
2013-04-15 08:40:00,34.3,32.5,29.73,West,264,0.0,0.0,93,0.00,,,0.03,Wunderground v.1.15,2013-04-15 15:40:00,
2013-04-15 08:45:00,34.7,32.9,29.73,NNW,339,0.0,0.0,93,0.00,,,0.03,Wunderground v.1.15,2013-04-15 15:45:00,
2013-04-15 08:51:00,34.9,32.8,29.73,NW,311,0.0,0.0,92,0.00,,,0.03,Wunderground v.1.15,2013-04-15 15:51:00,
2013-04-15 08:56:00,35.0,32.9,29.73,WNW,300,0.0,0.0,92,0.00,,,0.03,Wunderground v.1.15,2013-04-15 15:56:00,
2013-04-15 09:01:00,35.2,33.4,29.73,NW,321,0.0,0.0,93,0.00,,,0.03,Wunderground v.1.15,2013-04-15 16:01:00,
2013-04-15 09:08:00,35.1,32.7,29.72,WNW,303,0.0,0.0,91,0.00,,,0.03,Wunderground v.1.15,2013-04-15 16:08:00,
2013-04-15 09:13:00,35.1,32.7,29.72,NW,323,0.0,0.0,91,0.00,,,0.03,Wunderground v.1.15,2013-04-15 16:13:00,
2013-04-15 09:19:00,35.2,32.8,29.72,NNW,328,0.0,0.0,91,0.00,,,0.03,Wunderground v.1.15,2013-04-15 16:19:00,
2013-04-15 09:25:00,35.6,33.0,29.72,NNW,340,0.0,0.0,90,0.00,,,0.03,Wunderground v.1.15,2013-04-15 16:25:00,
2013-04-15 09:30:00,36.3,33.6,29.72,North,3,0.0,0.0,90,0.00,,,0.03,Wunderground v.1.15,2013-04-15 16:30:00,
2013-04-15 09:36:00,36.3,33.1,29.72,NW,309,0.0,0.0,88,0.00,,,0.03,Wunderground v.1.15,2013-04-15 16:36:00,
2013-04-15 09:43:00,36.5,33.6,29.72,North,357,0.0,0.0,89,0.00,,,0.03,Wunderground v.1.15,2013-04-15 16:43:00,
2013-04-15 09:49:00,36.7,32.9,29.72,NE,49,0.0,0.0,86,0.00,,,0.03,Wunderground v.1.15,2013-04-15 16:49:00,
2013-04-15 09:54:00,36.8,33.0,29.72,NNE,23,0.0,0.0,86,0.00,,,0.03,Wunderground v.1.15,2013-04-15 16:54:00,
2013-04-15 09:59:00,36.9,33.4,29.72,North,359,0.0,0.0,87,0.00,,,0.03,Wunderground v.1.15,2013-04-15 16:59:00,
2013-04-15 10:05:00,37.3,33.8,29.72,NNW,328,0.0,0.0,87,0.00,,,0.03,Wunderground v.1.15,2013-04-15 17:05:00,
2013-04-15 10:10:00,37.6,33.8,29.72,ENE,58,0.0,0.0,86,0.00,,,0.03,Wunderground v.1.15,2013-04-15 17:10:00,
2013-04-15 10:17:00,37.9,34.1,29.72,NNE,21,0.0,0.0,86,0.00,,,0.03,Wunderground v.1.15,2013-04-15 17:17:00,
2013-04-15 10:21:00,37.9,33.5,29.72,NNE,30,0.0,0.0,84,0.00,,,0.03,Wunderground v.1.15,2013-04-15 17:21:00,
2013-04-15 10:22:00,37.9,33.5,29.72,NE,35,0.0,0.0,84,0.00,,,0.03,Wunderground v.1.15,2013-04-15 17:22:00,
2013-04-15 10:25:00,38.0,33.6,29.72,NNE,17,0.0,0.0,84,0.00,,,0.03,Wunderground v.1.15,2013-04-15 17:25:00,
2013-04-15 10:27:00,38.0,33.6,29.72,NNE,13,0.0,0.0,84,0.00,,,0.03,Wunderground v.1.15,2013-04-15 17:27:00,
2013-04-15 10:33:00,38.2,33.5,29.72,NNW,331,0.0,0.0,83,0.00,,,0.03,Wunderground v.1.15,2013-04-15 17:33:00,
2013-04-15 10:37:00,38.4,33.7,29.72,NNE,28,0.0,0.0,83,0.00,,,0.03,Wunderground v.1.15,2013-04-15 17:37:00,
2013-04-15 10:43:00,38.7,33.4,29.71,WNW,302,0.0,0.0,81,0.00,,,0.03,Wunderground v.1.15,2013-04-15 17:43:00,
2013-04-15 10:49:00,39.9,34.9,29.71,North,7,0.0,0.0,82,0.00,,,0.03,Wunderground v.1.15,2013-04-15 17:49:00,
2013-04-15 10:55:00,40.5,35.4,29.71,NE,46,0.0,0.0,82,0.00,,,0.03,Wunderground v.1.15,2013-04-15 17:55:00,
2013-04-15 11:00:00,40.4,34.1,29.71,NNE,33,0.0,0.0,78,0.00,,,0.03,Wunderground v.1.15,2013-04-15 18:00:00,
2013-04-15 11:06:00,40.2,33.6,29.71,NE,46,0.0,0.0,77,0.00,,,0.03,Wunderground v.1.15,2013-04-15 18:06:00,
2013-04-15 11:12:00,39.8,32.5,29.70,NNE,21,0.0,0.0,75,0.00,,,0.03,Wunderground v.1.15,2013-04-15 18:12:00,
2013-04-15 11:18:00,40.3,33.7,29.70,North,10,0.0,0.0,77,0.00,,,0.03,Wunderground v.1.15,2013-04-15 18:18:00,
2013-04-15 11:24:00,40.4,32.8,29.70,ENE,62,0.0,0.0,74,0.00,,,0.03,Wunderground v.1.15,2013-04-15 18:24:00,
2013-04-15 11:29:00,41.0,33.3,29.70,NNE,27,0.0,0.0,74,0.00,,,0.03,Wunderground v.1.15,2013-04-15 18:29:00,
2013-04-15 11:30:00,41.1,33.4,29.70,ENE,63,0.0,0.0,74,0.00,,,0.03,Wunderground v.1.15,2013-04-15 18:30:00,
2013-04-15 11:34:00,41.0,32.7,29.69,NNE,25,0.0,0.0,72,0.00,,,0.03,Wunderground v.1.15,2013-04-15 18:34:00,
2013-04-15 11:36:00,41.0,33.0,29.70,NNE,20,0.0,0.0,73,0.00,,,0.03,Wunderground v.1.15,2013-04-15 18:36:00,
2013-04-15 11:37:00,41.1,32.8,29.69,NNE,25,0.0,0.0,72,0.00,,,0.03,Wunderground v.1.15,2013-04-15 18:37:00,
2013-04-15 11:43:00,41.3,32.6,29.69,NNE,26,0.0,0.0,71,0.00,,,0.03,Wunderground v.1.15,2013-04-15 18:43:00,
2013-04-15 11:48:00,41.6,33.6,29.69,NE,55,0.0,0.0,73,0.00,,,0.03,Wunderground v.1.15,2013-04-15 18:48:00,
2013-04-15 11:54:00,41.6,32.9,29.68,NE,44,0.0,0.0,71,0.00,,,0.03,Wunderground v.1.15,2013-04-15 18:54:00,
2013-04-15 12:00:00,41.8,32.4,29.68,NNE,17,0.0,0.0,69,0.00,,,0.03,Wunderground v.1.15,2013-04-15 19:00:00,
2013-04-15 12:06:00,42.1,32.7,29.68,ENE,60,0.0,0.0,69,0.00,,,0.03,Wunderground v.1.15,2013-04-15 19:06:00,
2013-04-15 12:11:00,42.7,33.2,29.67,NNE,30,0.0,0.0,69,0.00,,,0.03,Wunderground v.1.15,2013-04-15 19:11:00,
2013-04-15 12:16:00,42.7,32.1,29.68,NW,326,0.0,0.0,66,0.00,,,0.03,Wunderground v.1.15,2013-04-15 19:16:00,
2013-04-15 12:22:00,42.9,32.3,29.67,NW,304,0.0,0.0,66,0.00,,,0.03,Wunderground v.1.15,2013-04-15 19:22:00,
2013-04-15 12:27:00,44.3,32.9,29.67,SSW,195,0.0,0.0,64,0.00,,,0.03,Wunderground v.1.15,2013-04-15 19:27:00,
2013-04-15 12:33:00,45.2,32.1,29.67,NW,326,0.0,0.0,60,0.00,,,0.03,Wunderground v.1.15,2013-04-15 19:33:00,
2013-04-15 12:39:00,45.2,31.7,29.67,East,101,0.0,0.0,59,0.00,,,0.03,Wunderground v.1.15,2013-04-15 19:39:00,
2013-04-15 12:44:00,44.7,30.8,29.67,East,93,0.0,0.0,58,0.00,,,0.03,Wunderground v.1.15,2013-04-15 19:44:00,
2013-04-15 12:49:00,44.1,30.7,29.66,East,89,0.0,0.0,59,0.00,,,0.03,Wunderground v.1.15,2013-04-15 19:49:00,
2013-04-15 12:55:00,43.8,30.0,29.66,NE,41,0.0,0.0,58,0.00,,,0.03,Wunderground v.1.15,2013-04-15 19:55:00,
2013-04-15 12:58:00,43.9,30.1,29.66,SW,234,0.0,0.0,58,0.00,,,0.03,Wunderground v.1.15,2013-04-15 19:58:00,
2013-04-15 13:02:00,44.3,30.0,29.66,SE,129,0.0,0.0,57,0.00,,,0.03,Wunderground v.1.15,2013-04-15 20:02:00,
2013-04-15 13:03:00,44.3,30.0,29.65,SW,227,0.0,0.0,57,0.00,,,0.03,Wunderground v.1.15,2013-04-15 20:03:00,
2013-04-15 13:04:00,44.3,30.0,29.65,SSW,205,0.0,0.0,57,0.00,,,0.03,Wunderground v.1.15,2013-04-15 20:04:00,
2013-04-15 13:09:00,44.2,31.2,29.65,NW,312,0.0,0.0,60,0.00,,,0.03,Wunderground v.1.15,2013-04-15 20:09:00,
2013-04-15 13:10:00,44.2,30.8,29.65,NNW,330,0.0,0.0,59,0.00,,,0.03,Wunderground v.1.15,2013-04-15 20:10:00,
2013-04-15 13:15:00,43.9,30.9,29.65,NNE,32,0.0,0.0,60,0.00,,,0.03,Wunderground v.1.15,2013-04-15 20:15:00,
2013-04-15 13:21:00,43.7,30.3,29.65,NNE,27,0.0,0.0,59,0.00,,,0.03,Wunderground v.1.15,2013-04-15 20:21:00,
2013-04-15 13:26:00,43.5,29.3,29.65,North,10,0.0,0.0,57,0.00,,,0.03,Wunderground v.1.15,2013-04-15 20:26:00,
2013-04-15 13:32:00,43.0,29.2,29.65,NW,309,0.0,0.0,58,0.00,,,0.03,Wunderground v.1.15,2013-04-15 20:32:00,
2013-04-15 13:37:00,42.7,30.2,29.65,WSW,256,0.0,0.0,61,0.00,,,0.03,Wunderground v.1.15,2013-04-15 20:37:00,
2013-04-15 13:43:00,42.5,31.6,29.65,WSW,241,0.0,0.0,65,0.00,,,0.03,Wunderground v.1.15,2013-04-15 20:43:00,
2013-04-15 13:49:00,42.1,31.6,29.65,WNW,303,0.0,0.0,66,0.00,,,0.04,Wunderground v.1.15,2013-04-15 20:49:00,
2013-04-15 13:55:00,41.8,31.6,29.65,NNW,333,0.0,0.0,67,0.00,,,0.04,Wunderground v.1.15,2013-04-15 20:55:00,
2013-04-15 14:00:00,41.1,31.7,29.65,WNW,302,0.0,0.0,69,0.00,,,0.04,Wunderground v.1.15,2013-04-15 21:00:00,
2013-04-15 14:06:00,41.4,33.4,29.64,West,280,0.0,0.0,73,0.00,,,0.05,Wunderground v.1.15,2013-04-15 21:06:00,
2013-04-15 14:12:00,42.0,34.3,29.63,NNW,328,0.0,0.0,74,0.00,,,0.05,Wunderground v.1.15,2013-04-15 21:12:00,
2013-04-15 14:18:00,41.9,33.9,29.63,NW,315,0.0,0.0,73,0.00,,,0.05,Wunderground v.1.15,2013-04-15 21:18:00,
2013-04-15 14:24:00,42.4,33.3,29.64,NNW,347,0.0,0.0,70,0.00,,,0.05,Wunderground v.1.15,2013-04-15 21:24:00,
2013-04-15 14:30:00,43.0,33.5,29.64,NW,322,1.0,1.0,69,0.00,,,0.05,Wunderground v.1.15,2013-04-15 21:30:00,
2013-04-15 14:36:00,42.7,32.9,29.63,NNE,30,0.0,1.0,68,0.00,,,0.05,Wunderground v.1.15,2013-04-15 21:36:00,
2013-04-15 14:42:00,42.7,32.5,29.63,North,349,0.0,0.0,67,0.00,,,0.05,Wunderground v.1.15,2013-04-15 21:42:00,
2013-04-15 14:47:00,42.9,33.1,29.63,NNE,25,0.0,0.0,68,0.00,,,0.05,Wunderground v.1.15,2013-04-15 21:47:00,
2013-04-15 14:53:00,44.0,35.2,29.63,NNW,342,0.0,0.0,71,0.00,,,0.05,Wunderground v.1.15,2013-04-15 21:53:00,
2013-04-15 14:59:00,44.6,33.6,29.63,North,353,0.0,0.0,65,0.00,,,0.05,Wunderground v.1.15,2013-04-15 21:59:00,
2013-04-15 15:05:00,44.8,33.0,29.63,NNW,347,0.0,0.0,63,0.00,,,0.05,Wunderground v.1.15,2013-04-15 22:05:00,
2013-04-15 15:11:00,44.8,33.0,29.63,NNW,335,0.0,0.0,63,0.00,,,0.05,Wunderground v.1.15,2013-04-15 22:11:00,
2013-04-15 15:16:00,44.7,33.6,29.63,NNW,335,0.0,0.0,65,0.00,,,0.05,Wunderground v.1.15,2013-04-15 22:16:00,
2013-04-15 15:22:00,43.6,33.4,29.64,WNW,300,0.0,0.0,67,0.00,,,0.05,Wunderground v.1.15,2013-04-15 22:22:00,
2013-04-15 15:28:00,42.8,33.3,29.65,NNW,328,0.0,0.0,69,0.00,,,0.05,Wunderground v.1.15,2013-04-15 22:28:00,
2013-04-15 15:34:00,42.0,34.0,29.64,North,353,0.0,0.0,73,0.00,,,0.05,Wunderground v.1.15,2013-04-15 22:34:00,
2013-04-15 15:39:00,41.3,34.0,29.64,North,353,1.0,6.0,75,0.00,,,0.06,Wunderground v.1.15,2013-04-15 22:39:00,
2013-04-15 15:45:00,41.5,32.8,29.64,NW,316,3.0,10.0,71,0.00,,,0.06,Wunderground v.1.15,2013-04-15 22:45:00,
2013-04-15 15:51:00,41.1,32.1,29.66,NW,321,1.0,2.0,70,0.00,,,0.06,Wunderground v.1.15,2013-04-15 22:51:00,
2013-04-15 15:56:00,40.7,32.0,29.66,NW,313,0.0,2.0,71,0.00,,,0.06,Wunderground v.1.15,2013-04-15 22:56:00,
2013-04-15 16:02:00,40.1,32.5,29.67,WNW,295,0.0,0.0,74,0.00,,,0.07,Wunderground v.1.15,2013-04-15 23:02:00,
2013-04-15 16:07:00,39.7,31.8,29.67,NW,317,0.0,0.0,73,0.00,,,0.07,Wunderground v.1.15,2013-04-15 23:07:00,
2013-04-15 16:12:00,39.3,31.7,29.67,NNW,335,0.0,0.0,74,0.00,,,0.07,Wunderground v.1.15,2013-04-15 23:12:00,
2013-04-15 16:18:00,39.4,32.1,29.67,WNW,291,0.0,0.0,75,0.00,,,0.07,Wunderground v.1.15,2013-04-15 23:18:00,
2013-04-15 16:23:00,39.8,31.8,29.67,NNW,343,0.0,0.0,73,0.00,,,0.07,Wunderground v.1.15,2013-04-15 23:23:00,
2013-04-15 16:29:00,40.1,32.5,29.68,NW,308,0.0,0.0,74,0.00,,,0.07,Wunderground v.1.15,2013-04-15 23:29:00,
2013-04-15 16:35:00,40.4,32.1,29.68,WNW,301,0.0,0.0,72,0.00,,,0.07,Wunderground v.1.15,2013-04-15 23:35:00,
2013-04-15 16:41:00,40.1,32.5,29.68,NW,321,0.0,0.0,74,0.00,,,0.07,Wunderground v.1.15,2013-04-15 23:41:00,
2013-04-15 16:47:00,40.1,31.1,29.69,NW,315,0.0,0.0,70,0.00,,,0.07,Wunderground v.1.15,2013-04-15 23:47:00,
2013-04-15 16:53:00,39.6,31.7,29.69,NW,311,0.0,0.0,73,0.00,,,0.07,Wunderground v.1.15,2013-04-15 23:53:00,
2013-04-15 16:59:00,39.6,31.3,29.70,NW,318,0.0,0.0,72,0.00,,,0.07,Wunderground v.1.15,2013-04-15 23:59:00,
2013-04-15 17:04:00,39.3,31.0,29.70,NNW,333,0.0,0.0,72,0.00,,,0.07,Wunderground v.1.15,2013-04-16 00:04:00,
2013-04-15 17:10:00,38.7,31.8,29.70,NW,325,0.0,0.0,76,0.00,,,0.07,Wunderground v.1.15,2013-04-16 00:10:00,
2013-04-15 17:15:00,38.4,31.5,29.70,NW,326,0.0,0.0,76,0.00,,,0.07,Wunderground v.1.15,2013-04-16 00:15:00,
2013-04-15 17:20:00,38.3,30.7,29.70,NW,308,0.0,0.0,74,0.00,,,0.07,Wunderground v.1.15,2013-04-16 00:20:00,
2013-04-15 17:26:00,38.8,30.9,29.70,NW,322,0.0,0.0,73,0.00,,,0.07,Wunderground v.1.15,2013-04-16 00:26:00,
2013-04-15 17:32:00,39.4,30.8,29.70,WNW,298,0.0,0.0,71,0.00,,,0.07,Wunderground v.1.15,2013-04-16 00:32:00,
2013-04-15 17:38:00,39.4,29.3,29.71,NW,324,0.0,0.0,67,0.00,,,0.07,Wunderground v.1.15,2013-04-16 00:38:00,
2013-04-15 17:44:00,38.9,29.2,29.71,NW,325,0.0,0.0,68,0.00,,,0.07,Wunderground v.1.15,2013-04-16 00:44:00,
2013-04-15 17:50:00,38.8,29.1,29.71,NW,308,0.0,0.0,68,0.00,,,0.07,Wunderground v.1.15,2013-04-16 00:50:00,
2013-04-15 17:55:00,39.0,29.0,29.71,NW,321,0.0,0.0,67,0.00,,,0.07,Wunderground v.1.15,2013-04-16 00:55:00,
2013-04-15 18:00:00,39.3,29.3,29.72,West,270,0.0,0.0,67,0.00,,,0.07,Wunderground v.1.15,2013-04-16 01:00:00,
2013-04-15 18:06:00,39.2,28.8,29.72,NW,326,0.0,0.0,66,0.00,,,0.07,Wunderground v.1.15,2013-04-16 01:06:00,
2013-04-15 18:12:00,39.5,29.1,29.72,NNW,333,0.0,0.0,66,0.00,,,0.07,Wunderground v.1.15,2013-04-16 01:12:00,
2013-04-15 18:18:00,39.4,27.5,29.73,NNW,328,0.0,0.0,62,0.00,,,0.07,Wunderground v.1.15,2013-04-16 01:18:00,
2013-04-15 18:24:00,39.7,28.5,29.73,WNW,290,0.0,0.0,64,0.00,,,0.07,Wunderground v.1.15,2013-04-16 01:24:00,
2013-04-15 18:29:00,40.2,28.6,29.73,WNW,288,0.0,0.0,63,0.00,,,0.07,Wunderground v.1.15,2013-04-16 01:29:00,
2013-04-15 18:35:00,40.6,29.7,29.73,NNW,329,0.0,0.0,65,0.00,,,0.07,Wunderground v.1.15,2013-04-16 01:35:00,
2013-04-15 18:41:00,40.4,28.0,29.73,NW,319,0.0,0.0,61,0.00,,,0.07,Wunderground v.1.15,2013-04-16 01:41:00,
2013-04-15 18:47:00,40.2,27.4,29.73,NW,319,0.0,0.0,60,0.00,,,0.07,Wunderground v.1.15,2013-04-16 01:47:00,
2013-04-15 18:53:00,39.9,27.9,29.73,NW,319,0.0,5.0,62,0.00,,,0.07,Wunderground v.1.15,2013-04-16 01:53:00,
2013-04-15 18:59:00,39.6,27.6,29.73,WNW,301,2.0,10.0,62,0.00,,,0.07,Wunderground v.1.15,2013-04-16 01:59:00,
2013-04-15 19:04:00,39.4,27.8,29.73,NW,313,3.0,17.0,63,0.00,,,0.07,Wunderground v.1.15,2013-04-16 02:04:00,
2013-04-15 19:10:00,38.9,28.1,29.73,NW,304,3.0,9.0,65,0.00,,,0.07,Wunderground v.1.15,2013-04-16 02:10:00,
2013-04-15 19:16:00,38.0,27.6,29.73,NNW,337,4.0,9.0,66,0.00,,,0.07,Wunderground v.1.15,2013-04-16 02:16:00,
2013-04-15 19:21:00,37.6,28.3,29.73,WNW,285,3.0,3.0,69,0.00,,,0.07,Wunderground v.1.15,2013-04-16 02:21:00,
2013-04-15 19:27:00,37.3,28.1,29.74,WNW,300,1.0,3.0,69,0.00,,,0.07,Wunderground v.1.15,2013-04-16 02:27:00,
2013-04-15 19:33:00,37.1,27.9,29.75,NW,316,0.0,0.0,69,0.00,,,0.07,Wunderground v.1.15,2013-04-16 02:33:00,
2013-04-15 19:39:00,36.9,28.0,29.75,North,8,0.0,5.0,70,0.00,,,0.07,Wunderground v.1.15,2013-04-16 02:39:00,
2013-04-15 19:45:00,36.6,28.4,29.75,WNW,296,3.0,9.0,72,0.00,,,0.07,Wunderground v.1.15,2013-04-16 02:45:00,
2013-04-15 19:50:00,36.4,28.6,29.75,WNW,300,5.0,5.0,73,0.00,,,0.07,Wunderground v.1.15,2013-04-16 02:50:00,
2013-04-15 19:56:00,36.1,28.9,29.75,WNW,289,3.0,6.0,75,0.00,,,0.07,Wunderground v.1.15,2013-04-16 02:56:00,
2013-04-15 20:02:00,36.0,28.8,29.75,NNW,328,1.0,2.0,75,0.00,,,0.07,Wunderground v.1.15,2013-04-16 03:02:00,
2013-04-15 20:08:00,36.0,29.2,29.75,NW,309,0.0,2.0,76,0.00,,,0.07,Wunderground v.1.15,2013-04-16 03:08:00,
2013-04-15 20:13:00,36.0,29.2,29.75,NW,309,0.0,1.0,76,0.00,,,0.07,Wunderground v.1.15,2013-04-16 03:13:00,
2013-04-15 20:19:00,36.0,29.5,29.76,WNW,298,0.0,1.0,77,0.00,,,0.07,Wunderground v.1.15,2013-04-16 03:19:00,
2013-04-15 20:25:00,36.0,29.2,29.77,SW,223,1.0,1.0,76,0.00,,,0.07,Wunderground v.1.15,2013-04-16 03:25:00,
2013-04-15 20:30:00,36.1,29.3,29.77,NW,309,0.0,0.0,76,0.00,,,0.07,Wunderground v.1.15,2013-04-16 03:30:00,
2013-04-15 20:35:00,36.1,29.6,29.77,WNW,282,0.0,0.0,77,0.00,,,0.07,Wunderground v.1.15,2013-04-16 03:35:00,
2013-04-15 20:42:00,36.0,29.5,29.77,WNW,303,0.0,0.0,77,0.00,,,0.07,Wunderground v.1.15,2013-04-16 03:42:00,
2013-04-15 20:47:00,35.9,29.4,29.78,NW,304,0.0,0.0,77,0.00,,,0.07,Wunderground v.1.15,2013-04-16 03:47:00,
2013-04-15 20:53:00,35.9,29.4,29.78,NW,310,0.0,0.0,77,0.00,,,0.07,Wunderground v.1.15,2013-04-16 03:53:00,
2013-04-15 20:59:00,35.9,29.4,29.78,NW,314,0.0,0.0,77,0.00,,,0.07,Wunderground v.1.15,2013-04-16 03:59:00,
2013-04-15 21:00:00,35.9,29.4,29.78,NW,318,0.0,0.0,77,0.00,,,0.07,Wunderground v.1.15,2013-04-16 04:00:00,
2013-04-15 21:01:00,36.0,29.5,29.78,NW,315,0.0,0.0,77,0.00,,,0.07,Wunderground v.1.15,2013-04-16 04:01:00,
2013-04-15 21:02:00,36.0,29.5,29.79,NW,307,0.0,0.0,77,0.00,,,0.07,Wunderground v.1.15,2013-04-16 04:02:00,
2013-04-15 21:04:00,36.0,29.5,29.79,NW,315,0.0,0.0,77,0.00,,,0.07,Wunderground v.1.15,2013-04-16 04:04:00,
2013-04-15 21:09:00,36.0,29.5,29.79,NW,323,0.0,0.0,77,0.00,,,0.07,Wunderground v.1.15,2013-04-16 04:09:00,
2013-04-15 21:13:00,36.1,29.9,29.79,WNW,299,0.0,0.0,78,0.00,,,0.07,Wunderground v.1.15,2013-04-16 04:13:00,
2013-04-15 21:19:00,36.2,30.0,29.80,NW,312,0.0,0.0,78,0.00,,,0.07,Wunderground v.1.15,2013-04-16 04:19:00,
2013-04-15 21:24:00,36.3,30.1,29.80,NW,311,0.0,0.0,78,0.00,,,0.07,Wunderground v.1.15,2013-04-16 04:24:00,
2013-04-15 21:29:00,36.3,30.1,29.80,NW,325,0.0,0.0,78,0.00,,,0.07,Wunderground v.1.15,2013-04-16 04:29:00,
2013-04-15 21:35:00,36.4,29.2,29.81,NW,321,0.0,0.0,75,0.00,,,0.07,Wunderground v.1.15,2013-04-16 04:35:00,
2013-04-15 21:41:00,36.7,28.5,29.81,NNW,333,0.0,0.0,72,0.00,,,0.07,Wunderground v.1.15,2013-04-16 04:41:00,
2013-04-15 21:46:00,36.7,28.9,29.81,NNW,340,0.0,0.0,73,0.00,,,0.07,Wunderground v.1.15,2013-04-16 04:46:00,
2013-04-15 21:52:00,36.5,29.0,29.81,NW,322,0.0,0.0,74,0.00,,,0.07,Wunderground v.1.15,2013-04-16 04:52:00,
2013-04-15 21:58:00,36.4,28.9,29.81,NW,313,0.0,0.0,74,0.00,,,0.07,Wunderground v.1.15,2013-04-16 04:58:00,
2013-04-15 22:04:00,36.4,28.6,29.81,NW,319,0.0,0.0,73,0.00,,,0.07,Wunderground v.1.15,2013-04-16 05:04:00,
2013-04-15 22:10:00,36.3,28.8,29.81,WNW,303,0.0,0.0,74,0.00,,,0.07,Wunderground v.1.15,2013-04-16 05:10:00,
2013-04-15 22:15:00,36.3,28.8,29.81,NW,323,0.0,0.0,74,0.00,,,0.07,Wunderground v.1.15,2013-04-16 05:15:00,
2013-04-15 22:21:00,36.2,28.7,29.82,NW,309,0.0,0.0,74,0.00,,,0.07,Wunderground v.1.15,2013-04-16 05:21:00,
2013-04-15 22:27:00,36.1,28.6,29.82,NW,312,0.0,0.0,74,0.00,,,0.07,Wunderground v.1.15,2013-04-16 05:27:00,
2013-04-15 22:33:00,36.1,28.9,29.82,NNW,335,0.0,0.0,75,0.00,,,0.07,Wunderground v.1.15,2013-04-16 05:33:00,
2013-04-15 22:39:00,36.0,29.2,29.82,NW,308,0.0,0.0,76,0.00,,,0.07,Wunderground v.1.15,2013-04-16 05:39:00,
2013-04-15 22:45:00,36.1,28.9,29.82,NW,316,0.0,0.0,75,0.00,,,0.07,Wunderground v.1.15,2013-04-16 05:45:00,
2013-04-15 22:50:00,36.1,28.9,29.83,NW,318,0.0,0.0,75,0.00,,,0.07,Wunderground v.1.15,2013-04-16 05:50:00,
2013-04-15 22:56:00,36.2,29.0,29.83,NNW,338,0.0,0.0,75,0.00,,,0.07,Wunderground v.1.15,2013-04-16 05:56:00,
2013-04-15 23:02:00,36.2,29.0,29.83,NW,324,0.0,0.0,75,0.00,,,0.07,Wunderground v.1.15,2013-04-16 06:02:00,
2013-04-15 23:08:00,36.2,29.0,29.83,NNW,328,0.0,0.0,75,0.00,,,0.07,Wunderground v.1.15,2013-04-16 06:08:00,
2013-04-15 23:14:00,36.3,29.1,29.83,NW,321,0.0,0.0,75,0.00,,,0.07,Wunderground v.1.15,2013-04-16 06:14:00,
2013-04-15 23:19:00,36.4,28.6,29.84,NW,309,0.0,0.0,73,0.00,,,0.07,Wunderground v.1.15,2013-04-16 06:19:00,
2013-04-15 23:25:00,36.4,28.9,29.84,NW,326,0.0,0.0,74,0.00,,,0.07,Wunderground v.1.15,2013-04-16 06:25:00,
2013-04-15 23:31:00,36.5,29.0,29.84,NNW,333,0.0,0.0,74,0.00,,,0.07,Wunderground v.1.15,2013-04-16 06:31:00,
2013-04-15 23:36:00,36.5,29.0,29.84,NW,325,1.0,1.0,74,0.00,,,0.07,Wunderground v.1.15,2013-04-16 06:36:00,
2013-04-15 23:42:00,36.7,28.5,29.84,NW,319,1.0,4.0,72,0.00,,,0.07,Wunderground v.1.15,2013-04-16 06:42:00,
2013-04-15 23:48:00,36.7,28.5,29.85,NNW,340,4.0,9.0,72,0.00,,,0.07,Wunderground v.1.15,2013-04-16 06:48:00,
2013-04-15 23:54:00,36.7,28.5,29.85,NNW,340,8.0,11.0,72,0.00,,,0.07,Wunderground v.1.15,2013-04-16 06:54:00,
2013-04-15 23:59:00,36.5,28.3,29.85,NNW,336,10.0,18.0,72,0.00,,,0.07,Wunderground v.1.15,2013-04-16 06:59:00,